createdAt,value
2023-04-18T00:00:18.455Z,101404.16
2023-04-18T00:04:21.596Z,101396.69
2023-04-18T00:08:24.927Z,101403.28
2023-04-18T00:12:29.276Z,101404.00
2023-04-18T00:16:33.153Z,101401.78
2023-04-18T00:20:38.978Z,101393.44
2023-04-18T00:24:41.876Z,101400.25
2023-04-18T00:28:46.076Z,101393.78
2023-04-18T00:32:48.963Z,101393.81
2023-04-18T00:36:52.041Z,101390.28
2023-04-18T00:40:54.946Z,101382.56
2023-04-18T00:44:59.210Z,101381.91
2023-04-18T00:49:02.348Z,101384.69
2023-04-18T00:53:06.013Z,101382.16
2023-04-18T00:57:09.240Z,101377.75
2023-04-18T01:01:13.805Z,101375.88
2023-04-18T01:05:16.790Z,101377.22
2023-04-18T01:09:19.690Z,101384.63
2023-04-18T01:13:22.609Z,101373.94
2023-04-18T01:17:28.507Z,101363.88
2023-04-18T01:21:34.022Z,101362.03
2023-04-18T01:25:38.374Z,101361.34
2023-04-18T01:29:41.686Z,101367.84
2023-04-18T01:33:44.553Z,101365.09
2023-04-18T01:37:47.518Z,101360.69
2023-04-18T01:41:51.740Z,101356.78
2023-04-18T01:45:54.575Z,101365.28
2023-04-18T01:49:57.431Z,101347.44
2023-04-18T01:54:00.280Z,101346.94
2023-04-18T01:58:04.467Z,101351.00
2023-04-18T02:02:08.383Z,101349.47
2023-04-18T02:06:11.761Z,101343.00
2023-04-18T02:10:14.640Z,101342.69
2023-04-18T02:14:18.840Z,101348.09
2023-04-18T02:18:22.105Z,101347.06
2023-04-18T02:22:25.026Z,101359.69
2023-04-18T02:26:27.888Z,101340.97
2023-04-18T02:30:35.309Z,101358.63
2023-04-18T02:34:38.579Z,101350.97
2023-04-18T02:38:41.571Z,101363.72
2023-04-18T02:42:44.464Z,101361.19
2023-04-18T02:46:51.986Z,101363.56
2023-04-18T02:50:54.874Z,101363.06
2023-04-18T02:54:57.873Z,101363.88
2023-04-18T02:59:06.212Z,101360.66
2023-04-18T03:03:39.717Z,101359.97
2023-04-18T03:08:04.468Z,101352.84
2023-04-18T03:12:07.370Z,101365.75
2023-04-18T03:16:12.494Z,101362.00
2023-04-18T03:20:17.778Z,101362.31
2023-04-18T03:24:20.794Z,101360.28
2023-04-18T03:28:26.824Z,101357.56
2023-04-18T03:32:29.912Z,101362.84
2023-04-18T03:36:34.403Z,101364.00
2023-04-18T03:40:37.635Z,101367.56
2023-04-18T03:44:47.536Z,101368.06
2023-04-18T03:48:50.653Z,101380.25
2023-04-18T03:52:55.198Z,101377.91
2023-04-18T03:56:59.431Z,101378.59
2023-04-18T04:01:02.944Z,101379.56
2023-04-18T04:05:06.470Z,101384.00
2023-04-18T04:09:11.628Z,101375.16
2023-04-18T04:13:15.123Z,101380.53
2023-04-18T04:17:18.888Z,101383.94
2023-04-18T04:21:21.817Z,101376.59
2023-04-18T04:25:29.832Z,101384.28
2023-04-18T04:29:38.720Z,101386.31
2023-04-18T04:33:42.655Z,101384.94
2023-04-18T04:37:52.831Z,101384.94
2023-04-18T04:42:04.713Z,101394.41
2023-04-18T04:46:16.241Z,101394.41
2023-04-18T04:50:19.784Z,101406.47
2023-04-18T04:54:22.683Z,101408.34
2023-04-18T04:58:27.244Z,101413.09
2023-04-18T05:02:59.982Z,101413.47
2023-04-18T05:07:03.716Z,101415.88
2023-04-18T05:11:07.058Z,101413.16
2023-04-18T05:15:12.520Z,101416.56
2023-04-18T05:19:15.941Z,101414.84
2023-04-18T05:23:19.330Z,101431.16
2023-04-18T05:27:22.965Z,101433.38
2023-04-18T05:31:27.796Z,101439.84
2023-04-18T05:35:30.851Z,101441.25
2023-04-18T05:39:34.030Z,101448.19
2023-04-18T05:43:36.868Z,101446.13
2023-04-18T05:47:41.212Z,101465.16
2023-04-18T05:51:46.280Z,101460.41
2023-04-18T05:55:50.464Z,101464.47
2023-04-18T05:59:53.245Z,101465.47
2023-04-18T06:03:57.573Z,101472.66
2023-04-18T06:08:00.472Z,101477.34
2023-04-18T06:12:03.389Z,101485.44
2023-04-18T06:16:06.664Z,101487.88
2023-04-18T06:20:11.760Z,101487.53
2023-04-18T06:24:14.784Z,101478.03
2023-04-18T06:28:17.824Z,101480.13
2023-04-18T06:32:20.795Z,101478.44
2023-04-18T06:36:25.173Z,101486.63
2023-04-18T06:40:28.076Z,101489.00
2023-04-18T06:44:32.199Z,101486.78
2023-04-18T06:48:35.390Z,101484.91
2023-04-18T06:52:44.201Z,101483.03
2023-04-18T06:56:47.089Z,101482.00
2023-04-18T07:00:52.049Z,101482.88
2023-04-18T07:04:55.072Z,101491.00
2023-04-18T07:09:01.000Z,101495.41
2023-04-18T07:13:03.962Z,101487.19
2023-04-18T07:17:07.299Z,101492.34
2023-04-18T07:21:10.303Z,101490.03
2023-04-18T07:25:14.619Z,101478.75
2023-04-18T07:29:19.404Z,101480.09
2023-04-18T07:33:22.287Z,101479.47
2023-04-18T07:37:25.299Z,101473.06
2023-04-18T07:41:29.521Z,101479.91
2023-04-18T07:45:33.509Z,101477.03
2023-04-18T07:49:36.552Z,101472.69
2023-04-18T07:53:41.096Z,101473.81
2023-04-18T07:57:50.268Z,101472.47
2023-04-18T08:01:53.585Z,101474.22
2023-04-18T08:05:56.797Z,101465.00
2023-04-18T08:10:00.183Z,101461.22
2023-04-18T08:14:04.531Z,101476.72
2023-04-18T08:18:07.837Z,101464.91
2023-04-18T08:22:11.161Z,101469.75
2023-04-18T08:26:14.208Z,101467.25
2023-04-18T08:30:18.503Z,101470.41
2023-04-18T08:34:21.508Z,101476.34
2023-04-18T08:38:24.407Z,101472.47
2023-04-18T08:42:29.821Z,101475.25
2023-04-18T08:46:35.913Z,101478.44
2023-04-18T08:50:38.824Z,101482.41
2023-04-18T08:54:43.097Z,101474.72
2023-04-18T08:58:46.110Z,101482.13
2023-04-18T09:02:50.994Z,101453.53
2023-04-18T09:06:54.100Z,101482.38
2023-04-18T09:11:06.963Z,101491.22
2023-04-18T09:15:11.011Z,101491.63
2023-04-18T09:19:18.612Z,101487.50
2023-04-18T09:23:24.554Z,101483.00
2023-04-18T09:27:27.913Z,101482.50
2023-04-18T09:31:30.991Z,101490.53
2023-04-18T09:35:35.950Z,101490.09
2023-04-18T09:39:39.764Z,101494.47
2023-04-18T09:43:42.766Z,101479.94
2023-04-18T09:47:46.097Z,101485.44
2023-04-18T09:51:51.610Z,101487.47
2023-04-18T09:55:57.699Z,101481.44
2023-04-18T10:00:03.471Z,101485.50
2023-04-18T10:04:09.317Z,101486.88
2023-04-18T10:08:13.932Z,101478.09
2023-04-18T10:12:18.143Z,101490.81
2023-04-18T10:16:21.579Z,101484.84
2023-04-18T10:20:25.655Z,101469.69
2023-04-18T10:24:50.098Z,101482.66
2023-04-18T10:28:54.577Z,101477.19
2023-04-18T10:32:57.894Z,101474.78
2023-04-18T10:37:07.242Z,101470.88
2023-04-18T10:41:21.394Z,101474.13
2023-04-18T10:45:24.659Z,101479.97
2023-04-18T10:49:31.132Z,101485.66
2023-04-18T10:53:35.889Z,101483.91
2023-04-18T10:57:41.689Z,101483.91
2023-04-18T11:01:47.596Z,101478.53
2023-04-18T11:05:50.543Z,101477.34
2023-04-18T11:09:54.695Z,101463.88
2023-04-18T11:13:59.678Z,101466.47
2023-04-18T11:18:03.405Z,101463.28
2023-04-18T11:22:06.364Z,101465.09
2023-04-18T11:26:09.333Z,101458.72
2023-04-18T11:30:14.775Z,101460.91
2023-04-18T11:34:17.780Z,101459.63
2023-04-18T11:42:27.066Z,101463.94
2023-04-18T11:46:40.132Z,101455.94
2023-04-18T11:50:43.114Z,101462.41
2023-04-18T11:54:46.174Z,101458.78
2023-04-18T11:58:49.103Z,101449.84
2023-04-18T12:02:54.233Z,101459.66
2023-04-18T12:06:57.676Z,101458.81
2023-04-18T12:11:00.618Z,101457.34
2023-04-18T12:15:04.657Z,101457.13
2023-04-18T12:19:11.376Z,101457.91
2023-04-18T12:23:29.817Z,101464.22
2023-04-18T12:27:47.834Z,101448.66
2023-04-18T12:31:50.867Z,101456.25
2023-04-18T12:35:56.138Z,101445.59
2023-04-18T12:39:59.394Z,101448.38
2023-04-18T12:44:02.382Z,101456.69
2023-04-18T12:48:05.772Z,101453.19
2023-04-18T12:52:10.281Z,101449.72
2023-04-18T12:56:15.318Z,101437.66
2023-04-18T13:00:18.427Z,101435.50
2023-04-18T13:04:21.881Z,101452.53
2023-04-18T13:08:26.358Z,101449.47
2023-04-18T13:12:30.644Z,101448.19
2023-04-18T13:16:33.645Z,101447.38
2023-04-18T13:20:37.182Z,101442.94
2023-04-18T13:24:41.561Z,101441.03
2023-04-18T13:28:44.588Z,101436.97
2023-04-18T13:32:47.603Z,101436.34
2023-04-18T13:36:50.594Z,101441.44
2023-04-18T13:41:08.612Z,101431.28
2023-04-18T13:45:14.938Z,101434.44
2023-04-18T13:49:17.819Z,101431.16
2023-04-18T13:53:21.094Z,101416.13
2023-04-18T13:57:25.390Z,101425.72
2023-04-18T14:01:28.721Z,101424.06
2023-04-18T14:05:32.660Z,101418.94
2023-04-18T14:09:35.892Z,101413.44
2023-04-18T14:13:40.388Z,101415.63
2023-04-18T14:17:45.541Z,101420.09
2023-04-18T14:21:48.910Z,101411.88
2023-04-18T14:25:51.766Z,101411.81
2023-04-18T14:29:55.984Z,101393.84
2023-04-18T14:33:58.830Z,101401.66
2023-04-18T14:38:01.830Z,101397.03
2023-04-18T14:42:04.974Z,101406.53
2023-04-18T14:46:13.918Z,101401.53
2023-04-18T14:50:17.386Z,101401.38
2023-04-18T14:54:20.491Z,101403.28
2023-04-18T14:58:23.393Z,101402.00
2023-04-18T15:02:27.965Z,101403.00
2023-04-18T15:06:31.242Z,101396.53
2023-04-18T15:10:35.390Z,101397.72
2023-04-18T15:14:38.356Z,101398.75
2023-04-18T15:18:43.580Z,101394.34
2023-04-18T15:22:46.849Z,101390.00
2023-04-18T15:26:49.832Z,101394.94
2023-04-18T15:30:52.999Z,101397.91
2023-04-18T15:34:57.586Z,101393.50
2023-04-18T15:39:00.596Z,101392.22
2023-04-18T15:43:04.131Z,101390.59
2023-04-18T15:47:07.209Z,101393.88
2023-04-18T15:51:11.706Z,101386.69
2023-04-18T15:55:14.851Z,101391.63
2023-04-18T15:59:17.846Z,101391.47
2023-04-18T16:03:21.195Z,101384.28
2023-04-18T16:07:25.959Z,101379.47
2023-04-18T16:11:29.122Z,101378.06
2023-04-18T16:15:32.423Z,101379.50
2023-04-18T16:19:38.276Z,101369.06
2023-04-18T16:23:42.605Z,101374.31
2023-04-18T16:27:46.089Z,101379.19
2023-04-18T16:31:49.122Z,101374.00
2023-04-18T16:35:52.284Z,101373.06
2023-04-18T16:39:56.609Z,101381.81
2023-04-18T16:43:59.566Z,101379.19
2023-04-18T16:48:02.664Z,101372.97
2023-04-18T16:52:05.904Z,101379.47
2023-04-18T16:56:10.210Z,101389.75
2023-04-18T17:00:13.806Z,101376.38
2023-04-18T17:04:17.360Z,101377.81
2023-04-18T17:08:20.576Z,101382.81
2023-04-18T17:12:24.923Z,101384.38
2023-04-18T17:16:27.900Z,101385.97
2023-04-18T17:20:30.960Z,101378.09
2023-04-18T17:24:33.859Z,101380.69
2023-04-18T17:28:38.137Z,101379.03
2023-04-18T17:32:45.829Z,101390.63
2023-04-18T17:36:48.889Z,101380.34
2023-04-18T17:40:58.850Z,101375.19
2023-04-18T17:45:04.037Z,101384.16
2023-04-18T17:49:07.042Z,101399.47
2023-04-18T17:53:10.188Z,101387.63
2023-04-18T17:57:13.182Z,101395.06
2023-04-18T18:01:17.578Z,101405.25
2023-04-18T18:05:20.653Z,101395.75
2023-04-18T18:09:23.769Z,101394.88
2023-04-18T18:13:26.868Z,101397.41
2023-04-18T18:17:31.486Z,101399.09
2023-04-18T18:21:34.611Z,101394.84
2023-04-18T18:25:37.909Z,101401.97
2023-04-18T18:29:41.015Z,101402.31
2023-04-18T18:33:45.753Z,101406.22
2023-04-18T18:37:48.910Z,101397.09
2023-04-18T18:41:52.234Z,101408.66
2023-04-18T18:45:55.507Z,101405.41
2023-04-18T18:49:59.752Z,101409.78
2023-04-18T18:54:02.677Z,101423.09
2023-04-18T18:58:07.842Z,101423.88
2023-04-18T19:02:11.688Z,101439.50
2023-04-18T19:06:16.120Z,101425.31
2023-04-18T19:10:19.075Z,101433.50
2023-04-18T19:14:22.055Z,101435.91
2023-04-18T19:18:24.999Z,101436.53
2023-04-18T19:22:29.490Z,101446.72
2023-04-18T19:26:35.063Z,101447.69
2023-04-18T19:30:38.087Z,101449.94
2023-04-18T19:34:41.064Z,101450.72
2023-04-18T19:38:45.481Z,101458.81
2023-04-18T19:42:48.721Z,101454.78
2023-04-18T19:46:54.326Z,101461.19
2023-04-18T19:50:57.434Z,101469.66
2023-04-18T19:55:01.913Z,101451.91
2023-04-18T19:59:06.069Z,101469.22
2023-04-18T20:03:09.617Z,101475.84
2023-04-18T20:07:12.592Z,101478.13
2023-04-18T20:11:16.859Z,101479.81
2023-04-18T20:15:19.864Z,101486.50
2023-04-18T20:19:24.600Z,101491.91
2023-04-18T20:23:27.541Z,101491.72
2023-04-18T20:27:31.814Z,101494.66
2023-04-18T20:31:35.112Z,101496.28
2023-04-18T20:35:38.893Z,101499.97
2023-04-18T20:39:42.276Z,101505.81
2023-04-18T20:43:46.937Z,101489.78
2023-04-18T20:47:49.900Z,101503.25
2023-04-18T20:51:52.867Z,101499.09
2023-04-18T20:55:56.020Z,101503.25
2023-04-18T21:00:00.514Z,101507.97
2023-04-18T21:04:03.609Z,101506.09
2023-04-18T21:08:06.800Z,101501.44
2023-04-18T21:12:09.781Z,101504.91
2023-04-18T21:16:14.137Z,101506.03
2023-04-18T21:20:17.232Z,101512.44
2023-04-18T21:24:20.122Z,101513.28
2023-04-18T21:28:23.048Z,101514.13
2023-04-18T21:32:27.612Z,101506.56
2023-04-18T21:36:31.660Z,101511.00
2023-04-18T21:40:34.552Z,101512.03
2023-04-18T21:44:37.440Z,101515.44
2023-04-18T21:48:42.077Z,101512.69
2023-04-18T21:52:44.938Z,101506.81
2023-04-18T21:56:48.097Z,101499.47
2023-04-18T22:00:51.072Z,101494.75
2023-04-18T22:04:55.410Z,101500.03
2023-04-18T22:08:58.498Z,101502.97
2023-04-18T22:13:01.435Z,101505.72
2023-04-18T22:17:04.930Z,101499.97
2023-04-18T22:21:10.477Z,101504.22
2023-04-18T22:25:13.403Z,101498.94
2023-04-18T22:29:16.293Z,101499.38
2023-04-18T22:33:19.233Z,101513.28
2023-04-18T22:37:23.825Z,101514.13
2023-04-18T22:41:27.070Z,101510.75
2023-04-18T22:45:29.942Z,101513.06
2023-04-18T22:49:33.142Z,101522.16
2023-04-18T22:53:37.488Z,101505.91
2023-04-18T22:57:40.360Z,101511.38
2023-04-18T23:01:43.302Z,101509.88
2023-04-18T23:05:46.232Z,101516.03
2023-04-18T23:09:50.453Z,101509.88
2023-04-18T23:13:53.354Z,101516.84
2023-04-18T23:17:56.314Z,101512.44
2023-04-18T23:22:01.899Z,101516.69
2023-04-18T23:26:12.309Z,101521.94
2023-04-18T23:30:15.386Z,101514.38
2023-04-18T23:34:18.390Z,101514.38
2023-04-18T23:38:21.336Z,101520.06
2023-04-18T23:42:25.625Z,101512.03
2023-04-18T23:46:28.717Z,101512.03
2023-04-18T23:50:31.653Z,101525.72
2023-04-18T23:54:34.565Z,101520.84
2023-04-18T23:58:38.907Z,101517.94
